sensor_id;sensor_type;location;lat;lon;timestamp;pressure;altitude;pressure_sealevel;temperature;humidity
41306;BME280;27051;50.376;19.152;2023-04-19T00:01:51;98384.19;;;12.38;62.25
41306;BME280;27051;50.376;19.152;2023-04-19T00:04:17;98381.94;;;12.34;62.47
41306;BME280;27051;50.376;19.152;2023-04-19T00:06:43;98378.08;;;12.34;62.45
41306;BME280;27051;50.376;19.152;2023-04-19T00:09:10;98378.31;;;12.32;62.34
41306;BME280;27051;50.376;19.152;2023-04-19T00:11:36;98376.14;;;12.22;62.40
41306;BME280;27051;50.376;19.152;2023-04-19T00:14:03;98371.36;;;12.14;62.42
41306;BME280;27051;50.376;19.152;2023-04-19T00:16:29;98369.69;;;12.04;62.35
41306;BME280;27051;50.376;19.152;2023-04-19T00:18:55;98360.78;;;11.91;62.63
41306;BME280;27051;50.376;19.152;2023-04-19T00:21:22;98361.87;;;11.86;62.66
41306;BME280;27051;50.376;19.152;2023-04-19T00:24:01;98356.07;;;11.81;62.72
41306;BME280;27051;50.376;19.152;2023-04-19T00:26:28;98351.46;;;11.84;62.81
41306;BME280;27051;50.376;19.152;2023-04-19T00:28:54;98351.00;;;11.83;62.71
41306;BME280;27051;50.376;19.152;2023-04-19T00:31:21;98353.10;;;11.82;62.77
41306;BME280;27051;50.376;19.152;2023-04-19T00:33:47;98353.38;;;11.81;62.87
41306;BME280;27051;50.376;19.152;2023-04-19T00:36:13;98349.89;;;11.77;62.74
41306;BME280;27051;50.376;19.152;2023-04-19T00:38:40;98348.34;;;11.74;62.85
41306;BME280;27051;50.376;19.152;2023-04-19T00:41:06;98347.45;;;11.70;62.82
41306;BME280;27051;50.376;19.152;2023-04-19T00:43:33;98343.36;;;11.62;62.94
41306;BME280;27051;50.376;19.152;2023-04-19T00:45:59;98344.83;;;11.59;63.11
41306;BME280;27051;50.376;19.152;2023-04-19T00:48:26;98343.60;;;11.57;63.04
41306;BME280;27051;50.376;19.152;2023-04-19T00:50:53;98341.48;;;11.63;63.09
41306;BME280;27051;50.376;19.152;2023-04-19T00:53:19;98333.10;;;11.66;63.21
41306;BME280;27051;50.376;19.152;2023-04-19T00:55:46;98330.83;;;11.67;63.12
41306;BME280;27051;50.376;19.152;2023-04-19T00:58:12;98327.08;;;11.67;63.28
41306;BME280;27051;50.376;19.152;2023-04-19T01:00:39;98329.77;;;11.68;63.21
41306;BME280;27051;50.376;19.152;2023-04-19T01:03:05;98324.31;;;11.65;63.09
41306;BME280;27051;50.376;19.152;2023-04-19T01:05:44;98317.80;;;11.63;63.17
41306;BME280;27051;50.376;19.152;2023-04-19T01:08:10;98311.19;;;11.56;63.13
41306;BME280;27051;50.376;19.152;2023-04-19T01:10:36;98305.80;;;11.51;62.95
41306;BME280;27051;50.376;19.152;2023-04-19T01:13:03;98306.51;;;11.48;63.24
41306;BME280;27051;50.376;19.152;2023-04-19T01:15:30;98303.57;;;11.53;63.13
41306;BME280;27051;50.376;19.152;2023-04-19T01:17:56;98303.61;;;11.49;63.10
41306;BME280;27051;50.376;19.152;2023-04-19T01:20:23;98299.90;;;11.48;63.27
41306;BME280;27051;50.376;19.152;2023-04-19T01:22:49;98295.59;;;11.50;63.28
41306;BME280;27051;50.376;19.152;2023-04-19T01:25:16;98293.48;;;11.49;63.30
41306;BME280;27051;50.376;19.152;2023-04-19T01:27:42;98291.46;;;11.49;63.24
41306;BME280;27051;50.376;19.152;2023-04-19T01:30:09;98286.38;;;11.49;63.18
41306;BME280;27051;50.376;19.152;2023-04-19T01:32:35;98280.31;;;11.39;63.28
41306;BME280;27051;50.376;19.152;2023-04-19T01:35:02;98281.02;;;11.37;63.43
41306;BME280;27051;50.376;19.152;2023-04-19T01:37:29;98276.60;;;11.38;63.38
41306;BME280;27051;50.376;19.152;2023-04-19T01:39:55;98275.75;;;11.43;63.37
41306;BME280;27051;50.376;19.152;2023-04-19T01:42:21;98273.20;;;11.45;63.39
41306;BME280;27051;50.376;19.152;2023-04-19T01:44:48;98270.88;;;11.47;63.31
41306;BME280;27051;50.376;19.152;2023-04-19T01:47:14;98267.71;;;11.47;63.36
41306;BME280;27051;50.376;19.152;2023-04-19T01:49:41;98270.55;;;11.44;63.30
41306;BME280;27051;50.376;19.152;2023-04-19T01:52:07;98265.55;;;11.41;63.35
41306;BME280;27051;50.376;19.152;2023-04-19T01:54:33;98261.45;;;11.38;63.41
41306;BME280;27051;50.376;19.152;2023-04-19T01:57:00;98256.41;;;11.26;63.59
41306;BME280;27051;50.376;19.152;2023-04-19T01:59:26;98252.55;;;11.20;63.58
41306;BME280;27051;50.376;19.152;2023-04-19T02:01:53;98251.34;;;11.18;63.68
41306;BME280;27051;50.376;19.152;2023-04-19T02:04:19;98256.95;;;11.21;63.64
41306;BME280;27051;50.376;19.152;2023-04-19T02:06:46;98254.23;;;11.20;63.59
41306;BME280;27051;50.376;19.152;2023-04-19T02:09:13;98253.02;;;11.20;63.59
41306;BME280;27051;50.376;19.152;2023-04-19T02:11:39;98254.85;;;11.20;63.58
41306;BME280;27051;50.376;19.152;2023-04-19T02:14:05;98260.33;;;11.21;63.52
41306;BME280;27051;50.376;19.152;2023-04-19T02:16:32;98256.09;;;11.18;63.66
41306;BME280;27051;50.376;19.152;2023-04-19T02:18:58;98252.15;;;11.12;63.80
41306;BME280;27051;50.376;19.152;2023-04-19T02:21:25;98253.03;;;11.08;63.86
41306;BME280;27051;50.376;19.152;2023-04-19T02:23:51;98246.42;;;11.11;63.79
41306;BME280;27051;50.376;19.152;2023-04-19T02:26:17;98244.54;;;11.17;63.76
41306;BME280;27051;50.376;19.152;2023-04-19T02:28:44;98247.90;;;11.21;63.74
41306;BME280;27051;50.376;19.152;2023-04-19T02:31:10;98246.11;;;11.23;63.85
41306;BME280;27051;50.376;19.152;2023-04-19T02:33:37;98246.68;;;11.19;63.81
41306;BME280;27051;50.376;19.152;2023-04-19T02:36:03;98248.64;;;11.16;63.94
41306;BME280;27051;50.376;19.152;2023-04-19T02:38:30;98243.85;;;11.07;63.88
41306;BME280;27051;50.376;19.152;2023-04-19T02:40:56;98236.65;;;10.98;63.98
41306;BME280;27051;50.376;19.152;2023-04-19T02:43:22;98236.48;;;10.94;64.17
41306;BME280;27051;50.376;19.152;2023-04-19T02:45:49;98233.38;;;10.96;64.14
41306;BME280;27051;50.376;19.152;2023-04-19T02:48:16;98236.55;;;11.02;64.15
41306;BME280;27051;50.376;19.152;2023-04-19T02:50:42;98229.70;;;11.01;64.24
41306;BME280;27051;50.376;19.152;2023-04-19T02:53:09;98229.42;;;10.99;64.38
41306;BME280;27051;50.376;19.152;2023-04-19T02:55:35;98226.16;;;11.03;64.36
41306;BME280;27051;50.376;19.152;2023-04-19T02:58:01;98226.09;;;11.04;64.30
41306;BME280;27051;50.376;19.152;2023-04-19T03:00:28;98226.03;;;11.02;64.39
41306;BME280;27051;50.376;19.152;2023-04-19T03:02:55;98220.70;;;10.93;64.43
41306;BME280;27051;50.376;19.152;2023-04-19T03:05:22;98219.54;;;10.91;64.55
41306;BME280;27051;50.376;19.152;2023-04-19T03:07:49;98219.11;;;10.94;64.73
41306;BME280;27051;50.376;19.152;2023-04-19T03:10:15;98218.25;;;11.04;64.63
41306;BME280;27051;50.376;19.152;2023-04-19T03:12:41;98213.77;;;11.03;64.52
41306;BME280;27051;50.376;19.152;2023-04-19T03:15:09;98211.86;;;11.03;64.74
41306;BME280;27051;50.376;19.152;2023-04-19T03:17:35;98204.83;;;11.02;64.68
41306;BME280;27051;50.376;19.152;2023-04-19T03:20:02;98203.03;;;10.99;64.82
41306;BME280;27051;50.376;19.152;2023-04-19T03:22:28;98195.73;;;10.91;64.90
41306;BME280;27051;50.376;19.152;2023-04-19T03:24:55;98198.28;;;10.89;64.90
41306;BME280;27051;50.376;19.152;2023-04-19T03:27:21;98196.44;;;10.89;65.09
41306;BME280;27051;50.376;19.152;2023-04-19T03:29:47;98196.80;;;10.91;64.81
41306;BME280;27051;50.376;19.152;2023-04-19T03:32:14;98197.73;;;10.89;64.91
41306;BME280;27051;50.376;19.152;2023-04-19T03:34:40;98197.16;;;10.90;65.03
41306;BME280;27051;50.376;19.152;2023-04-19T03:37:06;98195.96;;;10.89;65.08
41306;BME280;27051;50.376;19.152;2023-04-19T03:39:33;98195.04;;;10.88;65.09
41306;BME280;27051;50.376;19.152;2023-04-19T03:41:59;98190.67;;;10.83;65.30
41306;BME280;27051;50.376;19.152;2023-04-19T03:44:26;98188.49;;;10.83;65.13
41306;BME280;27051;50.376;19.152;2023-04-19T03:46:52;98185.61;;;10.83;65.23
41306;BME280;27051;50.376;19.152;2023-04-19T03:49:19;98187.11;;;10.93;65.38
41306;BME280;27051;50.376;19.152;2023-04-19T03:51:45;98181.98;;;10.96;65.27
41306;BME280;27051;50.376;19.152;2023-04-19T03:54:11;98179.31;;;10.94;65.42
41306;BME280;27051;50.376;19.152;2023-04-19T03:56:38;98172.29;;;10.90;65.36
41306;BME280;27051;50.376;19.152;2023-04-19T03:59:04;98169.95;;;10.87;65.49
41306;BME280;27051;50.376;19.152;2023-04-19T04:01:31;98161.73;;;10.76;65.71
41306;BME280;27051;50.376;19.152;2023-04-19T04:03:58;98157.96;;;10.71;65.93
41306;BME280;27051;50.376;19.152;2023-04-19T04:06:24;98152.66;;;10.74;65.92
41306;BME280;27051;50.376;19.152;2023-04-19T04:08:51;98147.51;;;10.71;65.66
41306;BME280;27051;50.376;19.152;2023-04-19T04:11:17;98146.67;;;10.72;65.71
41306;BME280;27051;50.376;19.152;2023-04-19T04:13:43;98146.16;;;10.75;65.90
41306;BME280;27051;50.376;19.152;2023-04-19T04:16:10;98138.13;;;10.65;65.93
41306;BME280;27051;50.376;19.152;2023-04-19T04:18:36;98137.54;;;10.63;65.97
41306;BME280;27051;50.376;19.152;2023-04-19T04:21:03;98134.94;;;10.61;65.97
41306;BME280;27051;50.376;19.152;2023-04-19T04:23:29;98130.19;;;10.70;65.84
41306;BME280;27051;50.376;19.152;2023-04-19T04:25:59;98135.55;;;10.72;65.75
41306;BME280;27051;50.376;19.152;2023-04-19T04:28:27;98134.40;;;10.72;65.54
41306;BME280;27051;50.376;19.152;2023-04-19T04:30:54;98138.67;;;10.79;65.69
41306;BME280;27051;50.376;19.152;2023-04-19T04:33:24;98145.55;;;10.80;65.45
41306;BME280;27051;50.376;19.152;2023-04-19T04:35:52;98148.42;;;10.78;65.47
41306;BME280;27051;50.376;19.152;2023-04-19T04:38:19;98144.04;;;10.71;65.58
41306;BME280;27051;50.376;19.152;2023-04-19T04:40:50;98142.61;;;10.69;65.50
41306;BME280;27051;50.376;19.152;2023-04-19T04:43:16;98141.13;;;10.66;65.50
41306;BME280;27051;50.376;19.152;2023-04-19T04:45:42;98141.62;;;10.67;65.63
41306;BME280;27051;50.376;19.152;2023-04-19T04:48:09;98144.73;;;10.67;65.84
41306;BME280;27051;50.376;19.152;2023-04-19T04:50:36;98147.39;;;10.69;65.79
41306;BME280;27051;50.376;19.152;2023-04-19T04:53:02;98145.92;;;10.69;66.12
41306;BME280;27051;50.376;19.152;2023-04-19T04:55:29;98144.62;;;10.74;66.01
41306;BME280;27051;50.376;19.152;2023-04-19T04:57:55;98142.22;;;10.74;66.18
41306;BME280;27051;50.376;19.152;2023-04-19T05:00:22;98143.20;;;10.78;66.21
41306;BME280;27051;50.376;19.152;2023-04-19T05:02:49;98145.36;;;10.84;66.11
41306;BME280;27051;50.376;19.152;2023-04-19T05:05:16;98145.35;;;10.91;65.86
41306;BME280;27051;50.376;19.152;2023-04-19T05:07:42;98139.67;;;10.97;65.90
41306;BME280;27051;50.376;19.152;2023-04-19T05:10:09;98133.55;;;11.01;65.91
41306;BME280;27051;50.376;19.152;2023-04-19T05:12:36;98130.16;;;11.03;66.08
41306;BME280;27051;50.376;19.152;2023-04-19T05:15:03;98132.61;;;11.03;66.08
41306;BME280;27051;50.376;19.152;2023-04-19T05:17:30;98129.40;;;10.98;66.13
41306;BME280;27051;50.376;19.152;2023-04-19T05:19:56;98133.40;;;11.01;66.15
41306;BME280;27051;50.376;19.152;2023-04-19T05:22:23;98137.45;;;11.03;66.01
41306;BME280;27051;50.376;19.152;2023-04-19T05:24:49;98140.93;;;11.03;65.75
41306;BME280;27051;50.376;19.152;2023-04-19T05:27:15;98147.67;;;10.95;65.70
41306;BME280;27051;50.376;19.152;2023-04-19T05:29:42;98147.25;;;10.83;65.29
41306;BME280;27051;50.376;19.152;2023-04-19T05:32:08;98147.34;;;10.73;65.04
41306;BME280;27051;50.376;19.152;2023-04-19T05:34:35;98144.82;;;10.63;65.20
41306;BME280;27051;50.376;19.152;2023-04-19T05:37:04;98147.97;;;10.58;65.13
41306;BME280;27051;50.376;19.152;2023-04-19T05:39:31;98151.40;;;10.64;65.09
41306;BME280;27051;50.376;19.152;2023-04-19T05:41:57;98151.70;;;10.65;65.16
41306;BME280;27051;50.376;19.152;2023-04-19T05:44:24;98154.08;;;10.67;65.30
41306;BME280;27051;50.376;19.152;2023-04-19T05:46:50;98156.13;;;10.63;65.00
41306;BME280;27051;50.376;19.152;2023-04-19T05:49:17;98159.48;;;10.60;65.14
41306;BME280;27051;50.376;19.152;2023-04-19T05:51:43;98157.79;;;10.50;65.19
41306;BME280;27051;50.376;19.152;2023-04-19T05:54:10;98156.06;;;10.49;65.04
41306;BME280;27051;50.376;19.152;2023-04-19T05:56:37;98156.06;;;10.57;65.03
41306;BME280;27051;50.376;19.152;2023-04-19T05:59:03;98152.69;;;10.62;64.90
41306;BME280;27051;50.376;19.152;2023-04-19T06:01:30;98151.40;;;10.64;64.82
41306;BME280;27051;50.376;19.152;2023-04-19T06:03:57;98150.45;;;10.69;64.78
41306;BME280;27051;50.376;19.152;2023-04-19T06:06:23;98154.30;;;10.72;64.68
41306;BME280;27051;50.376;19.152;2023-04-19T06:08:51;98155.10;;;10.75;64.70
41306;BME280;27051;50.376;19.152;2023-04-19T06:11:17;98152.16;;;10.73;64.39
41306;BME280;27051;50.376;19.152;2023-04-19T06:13:44;98156.08;;;10.72;64.39
41306;BME280;27051;50.376;19.152;2023-04-19T06:16:10;98163.38;;;10.83;64.10
41306;BME280;27051;50.376;19.152;2023-04-19T06:18:36;98167.59;;;10.87;64.27
41306;BME280;27051;50.376;19.152;2023-04-19T06:21:03;98166.66;;;10.87;64.40
41306;BME280;27051;50.376;19.152;2023-04-19T06:23:29;98167.39;;;10.86;64.17
41306;BME280;27051;50.376;19.152;2023-04-19T06:25:55;98164.41;;;10.81;63.97
41306;BME280;27051;50.376;19.152;2023-04-19T06:28:22;98167.04;;;10.79;64.03
41306;BME280;27051;50.376;19.152;2023-04-19T06:30:48;98166.50;;;10.72;63.97
41306;BME280;27051;50.376;19.152;2023-04-19T06:33:15;98163.95;;;10.66;64.13
41306;BME280;27051;50.376;19.152;2023-04-19T06:35:41;98170.21;;;10.67;63.81
41306;BME280;27051;50.376;19.152;2023-04-19T06:38:07;98166.91;;;10.65;63.95
41306;BME280;27051;50.376;19.152;2023-04-19T06:40:34;98165.73;;;10.61;63.65
41306;BME280;27051;50.376;19.152;2023-04-19T06:43:00;98165.31;;;10.58;63.89
41306;BME280;27051;50.376;19.152;2023-04-19T06:45:26;98169.02;;;10.54;63.77
41306;BME280;27051;50.376;19.152;2023-04-19T06:47:53;98175.98;;;10.48;63.72
41306;BME280;27051;50.376;19.152;2023-04-19T06:50:19;98173.79;;;10.39;63.89
41306;BME280;27051;50.376;19.152;2023-04-19T06:52:46;98171.95;;;10.32;63.79
41306;BME280;27051;50.376;19.152;2023-04-19T06:55:12;98173.05;;;10.31;63.70
41306;BME280;27051;50.376;19.152;2023-04-19T06:57:41;98169.77;;;10.29;63.83
41306;BME280;27051;50.376;19.152;2023-04-19T07:00:09;98170.02;;;10.25;63.79
41306;BME280;27051;50.376;19.152;2023-04-19T07:02:35;98165.58;;;10.21;63.75
41306;BME280;27051;50.376;19.152;2023-04-19T07:05:02;98169.70;;;10.15;63.96
41306;BME280;27051;50.376;19.152;2023-04-19T07:07:28;98170.95;;;10.09;64.05
41306;BME280;27051;50.376;19.152;2023-04-19T07:09:55;98166.23;;;9.94;64.20
41306;BME280;27051;50.376;19.152;2023-04-19T07:12:21;98165.16;;;9.88;64.32
41306;BME280;27051;50.376;19.152;2023-04-19T07:14:48;98168.37;;;9.89;64.38
41306;BME280;27051;50.376;19.152;2023-04-19T07:17:14;98167.91;;;9.87;64.33
41306;BME280;27051;50.376;19.152;2023-04-19T07:19:40;98166.25;;;9.84;64.59
41306;BME280;27051;50.376;19.152;2023-04-19T07:22:07;98160.70;;;9.89;64.61
41306;BME280;27051;50.376;19.152;2023-04-19T07:24:33;98160.95;;;9.89;64.61
41306;BME280;27051;50.376;19.152;2023-04-19T07:27:00;98157.45;;;9.86;64.71
41306;BME280;27051;50.376;19.152;2023-04-19T07:29:26;98163.02;;;9.85;64.66
41306;BME280;27051;50.376;19.152;2023-04-19T07:31:52;98163.16;;;9.87;64.83
41306;BME280;27051;50.376;19.152;2023-04-19T07:34:19;98164.91;;;9.94;64.77
41306;BME280;27051;50.376;19.152;2023-04-19T07:36:45;98167.96;;;10.00;64.63
41306;BME280;27051;50.376;19.152;2023-04-19T07:39:12;98173.58;;;10.07;64.70
41306;BME280;27051;50.376;19.152;2023-04-19T07:41:38;98173.31;;;10.09;64.58
41306;BME280;27051;50.376;19.152;2023-04-19T07:44:04;98176.13;;;10.10;64.47
41306;BME280;27051;50.376;19.152;2023-04-19T07:46:31;98169.95;;;10.04;64.71
41306;BME280;27051;50.376;19.152;2023-04-19T07:48:57;98172.67;;;10.06;64.79
41306;BME280;27051;50.376;19.152;2023-04-19T07:51:24;98173.38;;;10.11;64.79
41306;BME280;27051;50.376;19.152;2023-04-19T07:53:50;98174.41;;;10.21;64.75
41306;BME280;27051;50.376;19.152;2023-04-19T07:56:16;98172.82;;;10.27;64.68
41306;BME280;27051;50.376;19.152;2023-04-19T07:58:43;98173.55;;;10.34;64.70
41306;BME280;27051;50.376;19.152;2023-04-19T08:01:09;98173.46;;;10.46;64.79
41306;BME280;27051;50.376;19.152;2023-04-19T08:03:36;98174.94;;;10.54;64.62
41306;BME280;27051;50.376;19.152;2023-04-19T08:06:05;98174.20;;;10.62;64.66
41306;BME280;27051;50.376;19.152;2023-04-19T08:08:32;98173.86;;;10.66;64.68
41306;BME280;27051;50.376;19.152;2023-04-19T08:10:58;98173.77;;;10.71;64.53
41306;BME280;27051;50.376;19.152;2023-04-19T08:13:25;98170.09;;;10.78;64.30
41306;BME280;27051;50.376;19.152;2023-04-19T08:15:51;98171.98;;;10.85;64.25
41306;BME280;27051;50.376;19.152;2023-04-19T08:18:17;98173.77;;;10.91;64.36
41306;BME280;27051;50.376;19.152;2023-04-19T08:20:47;98173.91;;;10.96;64.12
41306;BME280;27051;50.376;19.152;2023-04-19T08:23:13;98172.73;;;10.95;64.19
41306;BME280;27051;50.376;19.152;2023-04-19T08:25:40;98173.61;;;10.96;64.01
41306;BME280;27051;50.376;19.152;2023-04-19T08:28:06;98168.96;;;10.88;63.97
41306;BME280;27051;50.376;19.152;2023-04-19T08:30:33;98170.35;;;10.93;64.10
41306;BME280;27051;50.376;19.152;2023-04-19T08:33:00;98172.48;;;11.07;64.09
41306;BME280;27051;50.376;19.152;2023-04-19T08:35:26;98173.35;;;11.22;64.31
41306;BME280;27051;50.376;19.152;2023-04-19T08:37:52;98174.40;;;11.40;64.19
41306;BME280;27051;50.376;19.152;2023-04-19T08:40:19;98173.00;;;11.53;64.20
41306;BME280;27051;50.376;19.152;2023-04-19T08:42:45;98176.73;;;11.66;64.20
41306;BME280;27051;50.376;19.152;2023-04-19T08:45:15;98180.58;;;11.78;63.72
41306;BME280;27051;50.376;19.152;2023-04-19T08:47:42;98176.49;;;11.83;63.64
41306;BME280;27051;50.376;19.152;2023-04-19T08:50:09;98169.94;;;11.85;63.63
41306;BME280;27051;50.376;19.152;2023-04-19T08:52:36;98166.53;;;11.92;63.42
41306;BME280;27051;50.376;19.152;2023-04-19T08:55:05;98164.10;;;12.10;63.58
41306;BME280;27051;50.376;19.152;2023-04-19T08:57:32;98165.93;;;12.27;63.40
41306;BME280;27051;50.376;19.152;2023-04-19T09:00:00;98164.57;;;12.41;63.17
41306;BME280;27051;50.376;19.152;2023-04-19T09:02:26;98163.23;;;12.57;63.29
41306;BME280;27051;50.376;19.152;2023-04-19T09:04:53;98164.55;;;12.61;62.81
41306;BME280;27051;50.376;19.152;2023-04-19T09:07:26;98164.61;;;12.47;62.82
41306;BME280;27051;50.376;19.152;2023-04-19T09:10:08;98165.73;;;12.26;62.35
41306;BME280;27051;50.376;19.152;2023-04-19T09:12:36;98167.27;;;12.01;62.51
41306;BME280;27051;50.376;19.152;2023-04-19T09:15:04;98167.41;;;11.77;62.55
41306;BME280;27051;50.376;19.152;2023-04-19T09:17:32;98170.57;;;11.49;62.62
41306;BME280;27051;50.376;19.152;2023-04-19T09:19:58;98167.15;;;11.28;62.88
41306;BME280;27051;50.376;19.152;2023-04-19T09:22:25;98170.96;;;11.21;62.97
41306;BME280;27051;50.376;19.152;2023-04-19T09:24:52;98168.95;;;11.16;63.09
41306;BME280;27051;50.376;19.152;2023-04-19T09:27:29;98169.13;;;11.14;63.44
41306;BME280;27051;50.376;19.152;2023-04-19T09:29:58;98169.95;;;11.10;63.33
41306;BME280;27051;50.376;19.152;2023-04-19T09:32:25;98168.17;;;11.07;63.53
41306;BME280;27051;50.376;19.152;2023-04-19T09:34:54;98168.23;;;11.18;63.67
41306;BME280;27051;50.376;19.152;2023-04-19T09:37:21;98164.30;;;11.28;63.68
41306;BME280;27051;50.376;19.152;2023-04-19T09:39:48;98164.90;;;11.61;63.86
41306;BME280;27051;50.376;19.152;2023-04-19T09:42:15;98161.95;;;11.98;63.55
41306;BME280;27051;50.376;19.152;2023-04-19T09:44:41;98164.26;;;12.35;63.02
41306;BME280;27051;50.376;19.152;2023-04-19T09:47:25;98163.49;;;12.75;63.10
41306;BME280;27051;50.376;19.152;2023-04-19T09:52:32;98167.84;;;13.12;61.70
41306;BME280;27051;50.376;19.152;2023-04-19T09:55:04;98164.84;;;13.17;61.85
41306;BME280;27051;50.376;19.152;2023-04-19T09:57:32;98165.84;;;13.12;61.35
41306;BME280;27051;50.376;19.152;2023-04-19T10:00:00;98166.51;;;13.00;61.38
41306;BME280;27051;50.376;19.152;2023-04-19T10:02:30;98163.95;;;12.93;61.56
41306;BME280;27051;50.376;19.152;2023-04-19T10:04:57;98167.28;;;12.83;61.79
41306;BME280;27051;50.376;19.152;2023-04-19T10:07:24;98171.16;;;12.77;61.80
41306;BME280;27051;50.376;19.152;2023-04-19T10:09:54;98171.44;;;12.76;61.82
41306;BME280;27051;50.376;19.152;2023-04-19T10:12:24;98171.39;;;12.66;61.47
41306;BME280;27051;50.376;19.152;2023-04-19T10:14:54;98167.48;;;12.57;61.63
41306;BME280;27051;50.376;19.152;2023-04-19T10:17:22;98163.30;;;12.47;61.53
41306;BME280;27051;50.376;19.152;2023-04-19T10:20:03;98161.92;;;12.51;61.53
41306;BME280;27051;50.376;19.152;2023-04-19T10:22:30;98169.45;;;12.69;61.50
41306;BME280;27051;50.376;19.152;2023-04-19T10:25:15;98163.52;;;12.76;61.38
41306;BME280;27051;50.376;19.152;2023-04-19T10:27:43;98162.09;;;12.78;61.36
41306;BME280;27051;50.376;19.152;2023-04-19T10:32:44;98162.45;;;12.63;60.61
41306;BME280;27051;50.376;19.152;2023-04-19T10:35:22;98163.34;;;12.58;60.97
41306;BME280;27051;50.376;19.152;2023-04-19T10:38:02;98163.06;;;12.52;60.74
41306;BME280;27051;50.376;19.152;2023-04-19T10:40:52;98163.49;;;12.48;60.75
41306;BME280;27051;50.376;19.152;2023-04-19T10:43:19;98164.17;;;12.38;60.85
41306;BME280;27051;50.376;19.152;2023-04-19T10:45:46;98167.03;;;12.29;60.91
41306;BME280;27051;50.376;19.152;2023-04-19T10:53:46;98172.05;;;11.95;61.14
41306;BME280;27051;50.376;19.152;2023-04-19T10:56:13;98172.48;;;12.03;60.97
41306;BME280;27051;50.376;19.152;2023-04-19T11:04:02;98169.25;;;11.91;61.00
41306;BME280;27051;50.376;19.152;2023-04-19T11:06:29;98168.84;;;11.93;61.21
41306;BME280;27051;50.376;19.152;2023-04-19T11:08:56;98169.07;;;11.85;61.10
41306;BME280;27051;50.376;19.152;2023-04-19T11:11:22;98174.98;;;11.81;61.33
41306;BME280;27051;50.376;19.152;2023-04-19T11:13:49;98176.05;;;11.78;61.06
41306;BME280;27051;50.376;19.152;2023-04-19T11:16:16;98175.82;;;11.72;61.04
41306;BME280;27051;50.376;19.152;2023-04-19T11:18:43;98177.94;;;11.65;61.01
41306;BME280;27051;50.376;19.152;2023-04-19T11:21:13;98176.25;;;11.51;61.07
41306;BME280;27051;50.376;19.152;2023-04-19T11:23:40;98178.03;;;11.40;61.33
41306;BME280;27051;50.376;19.152;2023-04-19T11:26:09;98181.17;;;11.34;61.27
41306;BME280;27051;50.376;19.152;2023-04-19T11:28:37;98181.52;;;11.28;61.18
41306;BME280;27051;50.376;19.152;2023-04-19T11:31:04;98183.28;;;11.28;61.46
41306;BME280;27051;50.376;19.152;2023-04-19T11:33:34;98185.12;;;11.33;61.45
41306;BME280;27051;50.376;19.152;2023-04-19T11:36:02;98184.84;;;11.36;61.58
41306;BME280;27051;50.376;19.152;2023-04-19T11:38:29;98187.02;;;11.38;61.52
41306;BME280;27051;50.376;19.152;2023-04-19T11:41:00;98189.90;;;11.36;61.38
41306;BME280;27051;50.376;19.152;2023-04-19T11:43:36;98187.23;;;11.34;61.45
41306;BME280;27051;50.376;19.152;2023-04-19T11:46:07;98183.39;;;11.32;61.44
41306;BME280;27051;50.376;19.152;2023-04-19T11:48:34;98181.65;;;11.19;61.21
41306;BME280;27051;50.376;19.152;2023-04-19T11:51:01;98178.17;;;11.05;61.61
41306;BME280;27051;50.376;19.152;2023-04-19T11:53:29;98179.69;;;11.01;61.66
41306;BME280;27051;50.376;19.152;2023-04-19T11:56:02;98173.85;;;11.02;61.74
41306;BME280;27051;50.376;19.152;2023-04-19T12:01:12;98178.94;;;11.08;61.56
41306;BME280;27051;50.376;19.152;2023-04-19T12:03:40;98180.57;;;11.05;61.51
41306;BME280;27051;50.376;19.152;2023-04-19T12:06:11;98186.17;;;11.05;61.71
41306;BME280;27051;50.376;19.152;2023-04-19T12:08:42;98185.27;;;10.93;61.65
41306;BME280;27051;50.376;19.152;2023-04-19T12:11:09;98187.97;;;10.91;61.78
41306;BME280;27051;50.376;19.152;2023-04-19T12:13:36;98186.60;;;10.89;61.78
41306;BME280;27051;50.376;19.152;2023-04-19T12:16:03;98186.55;;;10.84;61.92
41306;BME280;27051;50.376;19.152;2023-04-19T12:18:50;98187.15;;;10.84;61.87
41306;BME280;27051;50.376;19.152;2023-04-19T12:21:26;98179.97;;;10.75;61.91
41306;BME280;27051;50.376;19.152;2023-04-19T12:23:55;98175.86;;;10.73;62.00
41306;BME280;27051;50.376;19.152;2023-04-19T12:26:21;98175.87;;;10.64;61.98
41306;BME280;27051;50.376;19.152;2023-04-19T12:28:48;98179.66;;;10.75;62.16
41306;BME280;27051;50.376;19.152;2023-04-19T12:31:14;98180.73;;;10.82;62.14
41306;BME280;27051;50.376;19.152;2023-04-19T12:33:41;98181.48;;;10.87;62.07
41306;BME280;27051;50.376;19.152;2023-04-19T12:36:07;98183.55;;;10.86;61.93
41306;BME280;27051;50.376;19.152;2023-04-19T12:38:34;98183.68;;;10.81;61.98
41306;BME280;27051;50.376;19.152;2023-04-19T12:41:00;98189.88;;;10.76;61.95
41306;BME280;27051;50.376;19.152;2023-04-19T12:43:26;98193.12;;;10.65;61.97
41306;BME280;27051;50.376;19.152;2023-04-19T12:45:53;98193.55;;;10.62;62.10
41306;BME280;27051;50.376;19.152;2023-04-19T12:48:19;98191.17;;;10.55;62.38
41306;BME280;27051;50.376;19.152;2023-04-19T12:50:46;98191.38;;;10.56;62.42
41306;BME280;27051;50.376;19.152;2023-04-19T12:53:12;98191.94;;;10.57;62.52
41306;BME280;27051;50.376;19.152;2023-04-19T12:55:38;98193.41;;;10.62;62.34
41306;BME280;27051;50.376;19.152;2023-04-19T12:58:05;98193.83;;;10.66;62.36
41306;BME280;27051;50.376;19.152;2023-04-19T13:00:31;98194.51;;;10.63;62.31
41306;BME280;27051;50.376;19.152;2023-04-19T13:02:58;98192.16;;;10.67;62.35
41306;BME280;27051;50.376;19.152;2023-04-19T13:05:24;98194.42;;;10.65;62.33
41306;BME280;27051;50.376;19.152;2023-04-19T13:07:51;98189.21;;;10.69;62.38
41306;BME280;27051;50.376;19.152;2023-04-19T13:10:17;98187.64;;;10.69;62.33